Terminal Aerodrome Forecast
Issued by NWS

Home | Current Version | Previous Version | Text Only | Print | Product List | Glossary On
Versions: 1 2 3 4 5 6 7 8 9 10 11 12 13 14 15 16 17 18
512
FTUS46 KLOX 231302 AAB
TAFVNY
TAF AMD
KVNY 231302Z 2313/2412 VRB03KT 5SM BR OVC010
     FM231600 VRB03KT 6SM BR BKN012
     FM231830 15008KT P6SM SCT015
     FM232100 12006KT P6SM SKC
     FM240300 VRB03KT P6SM SKC
     FM240800 11006KT 5SM BR BKN007
     FM241100 VRB03KT 6SM BR OVC011=

USA.gov is the U.S. government's official web portal to all federal, state and local government web resources and services.